createdAt,value
2023-05-17T08:12:16.880Z,94980.81
2023-05-17T08:15:43.033Z,95004.03
2023-05-17T08:38:10.208Z,94979.38
2023-05-17T10:35:46.014Z,94917.56
2023-05-17T10:39:56.451Z,94932.28
2023-05-17T10:43:06.581Z,94900.75
2023-05-17T10:46:03.077Z,94889.63
2023-05-17T12:02:28.687Z,94850.44
2023-05-17T12:05:20.242Z,94852.06
2023-05-17T12:08:06.349Z,94840.59
2023-05-17T12:10:52.908Z,94855.88
2023-05-17T12:13:41.942Z,94841.72
2023-05-17T12:16:29.252Z,94834.38
2023-05-17T12:19:20.221Z,94826.50
2023-05-17T12:22:09.500Z,94832.50
2023-05-17T12:24:55.543Z,94827.88
2023-05-17T12:27:42.243Z,94825.97
2023-05-17T12:30:28.951Z,94830.59
2023-05-17T12:33:15.569Z,94822.41
2023-05-17T12:36:03.751Z,94828.13
2023-05-17T12:38:50.341Z,94813.16
2023-05-17T12:41:38.697Z,94815.84
2023-05-17T12:44:25.649Z,94800.31
2023-05-17T12:47:12.144Z,94805.75
2023-05-17T13:00:19.210Z,94776.66
2023-05-17T13:04:16.066Z,94793.22
2023-05-17T13:07:08.098Z,94772.81
2023-05-17T13:09:58.582Z,94786.38
2023-05-17T13:13:00.285Z,94780.97
2023-05-17T13:15:48.652Z,94772.25
2023-05-17T13:22:31.955Z,94783.94
2023-05-17T13:25:22.282Z,94747.44
2023-05-17T13:28:09.780Z,94746.84
2023-05-17T13:30:59.676Z,94752.50
2023-05-17T13:33:47.618Z,94761.44
2023-05-17T13:36:33.767Z,94764.34
2023-05-17T13:39:21.203Z,94764.03
2023-05-17T13:42:12.122Z,94743.31
2023-05-17T13:45:04.872Z,94738.09
2023-05-17T13:48:07.032Z,94741.88
2023-05-17T13:50:59.271Z,94749.66
2023-05-17T13:53:46.627Z,94741.38
2023-05-17T13:56:45.670Z,94734.00
2023-05-17T13:59:32.311Z,94726.09
2023-05-17T14:02:18.542Z,94711.66
2023-05-17T14:05:07.444Z,94726.09
2023-05-17T14:07:53.941Z,94729.59
2023-05-17T14:10:40.288Z,94734.50
2023-05-17T14:13:29.350Z,94735.09
2023-05-17T14:16:16.093Z,94727.47
2023-05-17T14:19:04.527Z,94718.91
2023-05-17T14:21:50.987Z,94724.47
2023-05-17T14:24:37.281Z,94726.88
2023-05-17T14:27:23.690Z,94733.56
2023-05-17T14:30:13.447Z,94732.09
2023-05-17T14:33:00.472Z,94722.69
2023-05-17T14:35:59.949Z,94731.34
2023-05-17T14:38:45.880Z,94731.56
2023-05-17T14:41:32.295Z,94742.88
2023-05-17T14:44:18.865Z,94735.50
2023-05-17T14:47:07.526Z,94738.94
2023-05-17T14:49:53.658Z,94747.34
2023-05-17T14:52:39.862Z,94762.47
2023-05-17T14:55:30.429Z,94747.00
2023-05-17T14:58:17.118Z,94753.53
2023-05-17T15:01:05.315Z,94735.56
2023-05-17T15:03:52.374Z,94750.41
2023-05-17T15:06:38.841Z,94739.81
2023-05-17T15:09:25.301Z,94759.97
2023-05-17T15:12:14.071Z,94731.81
2023-05-17T15:15:00.918Z,94747.84
2023-05-17T15:17:47.924Z,94762.38
2023-05-17T15:20:37.383Z,94770.13
2023-05-17T15:23:23.370Z,94767.28
2023-05-17T15:26:09.916Z,94764.59
2023-05-17T15:28:56.255Z,94765.44
2023-05-17T15:31:42.619Z,94757.94
2023-05-17T15:34:29.407Z,94765.34
2023-05-17T15:37:15.757Z,94751.78
2023-05-17T15:40:14.203Z,94775.53
2023-05-17T15:43:02.424Z,94787.84
2023-05-17T15:45:49.121Z,94773.16
2023-05-17T15:48:36.204Z,94770.75
2023-05-17T15:51:22.379Z,94774.09
2023-05-17T15:54:11.349Z,94774.94
2023-05-17T15:57:02.360Z,94779.28
2023-05-17T16:09:50.373Z,94794.63
2023-05-17T19:43:39.332Z,95054.91
2023-05-17T19:47:07.497Z,95046.41
2023-05-17T19:51:06.687Z,95073.63
2023-05-17T19:59:44.448Z,95097.00
2023-05-17T20:03:57.224Z,95079.47
2023-05-17T20:07:38.749Z,95089.28
2023-05-17T20:21:20.083Z,95098.09
2023-05-17T20:39:16.960Z,95145.75
2023-05-17T20:52:27.615Z,95141.06
2023-05-17T21:00:58.673Z,95110.41
2023-05-17T21:04:14.187Z,95111.78
2023-05-17T21:11:42.786Z,95122.66
2023-05-17T21:15:16.412Z,95135.97
2023-05-17T21:19:16.360Z,95116.03
2023-05-17T21:35:18.384Z,95126.19
2023-05-17T21:42:17.995Z,95126.47
2023-05-17T21:46:18.402Z,95119.91
2023-05-17T21:49:38.042Z,95128.81
2023-05-17T21:53:00.121Z,95141.16
2023-05-17T21:56:30.579Z,95147.91
2023-05-17T22:04:00.374Z,95131.19
2023-05-17T22:35:40.147Z,95142.63
2023-05-17T22:59:41.815Z,95154.31
2023-05-17T23:20:08.988Z,95143.28
2023-05-17T23:28:52.634Z,95119.09
2023-05-17T23:32:42.145Z,95119.53
2023-05-17T23:36:37.227Z,95143.38
2023-05-17T23:40:44.592Z,95126.16
2023-05-17T23:43:58.094Z,95123.25
2023-05-17T23:47:05.810Z,95137.94
2023-05-17T23:50:31.910Z,95111.94
2023-05-17T23:54:14.759Z,95150.03
